Time;durP1;ratioP1;P1;durP2;ratioP2;P2;SDS_P1;SDS_P2;PMS_P1;PMS_P2;Temp;Humidity;BMP_temperature;BMP_pressure;BME280_temperature;BME280_humidity;BME280_pressure;Samples;Min_cycle;Max_cycle;Signal;HPM_P1;HPM_P2
2022/06/18 00:02:18;;;;;;;;;;;;;;;25.44;67.04;98515.13;5030622;28;19954;-79
2022/06/18 00:04:46;;;;;;;;;;;;;;;25.45;67.83;98516.72;5032050;28;19986;-81
2022/06/18 00:07:14;;;;;;;;;;;;;;;25.32;69.67;98517.91;5031289;28;19983;-80
2022/06/18 00:09:42;;;;;;;;;;;;;;;25.25;71.38;98512.22;5012635;28;19964;-81
2022/06/18 00:14:57;;;;;;;;;;;;;;;25.31;71.58;98508.13;5028586;28;19932;-80
2022/06/18 00:17:23;;;;;;;;;;;;;;;25.31;71.95;98499.91;5025761;28;20085;-81
2022/06/18 00:19:51;;;;;;;;;;;;;;;25.22;73.83;98512.91;5033252;28;20613;-80
2022/06/18 00:22:19;;;;;;;;;;;;;;;25.25;74.49;98514.97;5013195;28;19931;-80
2022/06/18 00:24:46;;;;;;;;;;;;;;;25.47;73.00;98519.13;5026129;28;19928;-80
2022/06/18 00:27:12;;;;;;;;;;;;;;;25.59;71.66;98530.06;5015546;28;19925;-79
2022/06/18 00:29:39;;;;;;;;;;;;;;;25.59;71.52;98525.38;5029909;28;19925;-80
2022/06/18 00:32:06;;;;;;;;;;;;;;;25.24;74.50;98529.75;5034326;28;19963;-80
2022/06/18 00:34:32;;;;;;;;;;;;;;;25.24;74.71;98527.84;5038201;28;19924;-80
2022/06/18 00:37:00;;;;;;;;;;;;;;;25.06;76.86;98525.69;5016379;28;19960;-81
2022/06/18 00:39:28;;;;;;;;;;;;;;;24.92;78.25;98519.75;5031014;28;19929;-80
2022/06/18 00:41:55;;;;;;;;;;;;;;;25.16;77.06;98522.50;5025289;28;19967;-81
2022/06/18 00:44:26;;;;;;;;;;;;;;;25.17;77.42;98521.34;5040396;28;19986;-81
2022/06/18 00:46:57;;;;;;;;;;;;;;;24.92;78.76;98526.03;5027345;28;20031;-80
2022/06/18 00:49:25;;;;;;;;;;;;;;;25.00;78.47;98529.78;5016906;28;19929;-82
2022/06/18 00:51:54;;;;;;;;;;;;;;;25.06;77.68;98531.16;5034670;28;20508;-79
2022/06/18 00:54:23;;;;;;;;;;;;;;;24.92;79.72;98527.94;5030088;28;19933;-81
2022/06/18 00:56:52;;;;;;;;;;;;;;;24.97;79.06;98533.22;5022725;28;20047;-81
2022/06/18 00:59:23;;;;;;;;;;;;;;;24.86;80.19;98521.13;5026143;28;19956;-81
2022/06/18 01:01:51;;;;;;;;;;;;;;;24.71;80.04;98531.56;5033273;28;19935;-81
2022/06/18 01:04:21;;;;;;;;;;;;;;;24.81;78.70;98530.34;5026592;28;20137;-80
2022/06/18 01:06:47;;;;;;;;;;;;;;;24.69;78.68;98527.59;5036513;28;20605;-81
2022/06/18 01:09:16;;;;;;;;;;;;;;;24.76;78.31;98527.03;5031377;28;20602;-80
2022/06/18 01:11:46;;;;;;;;;;;;;;;24.74;77.96;98519.16;5036345;28;19972;-81
2022/06/18 01:14:15;;;;;;;;;;;;;;;24.86;77.28;98513.72;5037187;28;20623;-82
2022/06/18 01:16:41;;;;;;;;;;;;;;;24.90;76.74;98522.03;5011692;28;19924;-79
2022/06/18 01:19:09;;;;;;;;;;;;;;;24.75;78.03;98514.50;5039871;28;20012;-80
2022/06/18 01:21:40;;;;;;;;;;;;;;;24.63;78.62;98512.56;5028589;28;19936;-80
2022/06/18 01:24:13;;;;;;;;;;;;;;;24.81;77.87;98511.25;5038741;28;20480;-80
2022/06/18 01:26:39;;;;;;;;;;;;;;;24.68;79.32;98512.31;5034938;28;19976;-81
2022/06/18 01:29:06;;;;;;;;;;;;;;;24.65;78.55;98505.63;5034675;28;20567;-80
2022/06/18 01:31:32;;;;;;;;;;;;;;;24.80;78.22;98503.34;5033054;28;19925;-81
2022/06/18 01:33:58;;;;;;;;;;;;;;;24.64;78.42;98516.88;5028115;28;19992;-80
2022/06/18 01:36:27;;;;;;;;;;;;;;;24.63;79.24;98507.88;5033173;28;19925;-81
2022/06/18 01:38:53;;;;;;;;;;;;;;;24.45;79.73;98503.75;5015871;28;20389;-80
2022/06/18 01:44:09;;;;;;;;;;;;;;;24.34;81.00;98504.53;5032936;28;20015;-80
2022/06/18 01:46:36;;;;;;;;;;;;;;;24.26;81.63;98505.44;5026509;28;19924;-82
2022/06/18 01:49:05;;;;;;;;;;;;;;;24.23;82.23;98497.94;5030934;28;20119;-80
2022/06/18 01:51:35;;;;;;;;;;;;;;;24.45;80.71;98492.84;5035773;28;19929;-81
2022/06/18 01:54:05;;;;;;;;;;;;;;;24.19;81.72;98503.28;5035457;28;19925;-80
2022/06/18 01:56:35;;;;;;;;;;;;;;;24.18;82.53;98496.22;5033840;28;19959;-81
2022/06/18 01:59:05;;;;;;;;;;;;;;;24.10;82.79;98488.88;5012399;28;19974;-81
2022/06/18 02:01:34;;;;;;;;;;;;;;;24.10;82.25;98489.69;5025531;28;20040;-81
2022/06/18 02:04:01;;;;;;;;;;;;;;;24.24;82.12;98483.94;5037789;28;20015;-81
2022/06/18 02:06:29;;;;;;;;;;;;;;;24.09;82.76;98482.63;5033140;28;19967;-81
2022/06/18 02:08:56;;;;;;;;;;;;;;;24.26;82.93;98480.88;5022523;28;20367;-81
2022/06/18 02:11:22;;;;;;;;;;;;;;;24.30;81.88;98474.41;5017902;28;20379;-80
2022/06/18 02:13:53;;;;;;;;;;;;;;;24.03;84.07;98473.06;5037154;28;19933;-81
2022/06/18 02:16:22;;;;;;;;;;;;;;;24.07;84.51;98473.19;5034346;28;20020;-79
2022/06/18 02:18:49;;;;;;;;;;;;;;;24.13;83.42;98464.50;5037600;28;19928;-81
2022/06/18 02:21:17;;;;;;;;;;;;;;;23.89;86.25;98467.09;5037149;28;20044;-80
2022/06/18 02:23:43;;;;;;;;;;;;;;;23.52;88.49;98468.88;5035465;28;19924;-80
2022/06/18 02:26:09;;;;;;;;;;;;;;;23.19;91.54;98462.53;5029733;28;20027;-81
2022/06/18 02:28:38;;;;;;;;;;;;;;;23.46;89.12;98475.66;5028627;28;19925;-81
2022/06/18 02:31:06;;;;;;;;;;;;;;;23.21;91.87;98473.91;5030316;28;20008;-81
2022/06/18 02:33:35;;;;;;;;;;;;;;;23.02;93.66;98459.97;5028540;28;19929;-81
2022/06/18 02:36:07;;;;;;;;;;;;;;;23.16;92.58;98467.88;5037808;28;19928;-79
2022/06/18 02:38:34;;;;;;;;;;;;;;;22.92;94.84;98468.50;5010154;28;19925;-80
2022/06/18 02:41:00;;;;;;;;;;;;;;;23.18;92.32;98468.34;5033410;28;19997;-81
2022/06/18 02:43:27;;;;;;;;;;;;;;;23.46;90.18;98463.97;5030377;28;20016;-81
2022/06/18 02:45:54;;;;;;;;;;;;;;;23.40;90.61;98466.09;5033455;28;20374;-82
2022/06/18 02:48:24;;;;;;;;;;;;;;;23.48;89.75;98461.72;5032512;28;19967;-80
2022/06/18 02:50:50;;;;;;;;;;;;;;;23.06;93.98;98466.31;5031568;28;20036;-80
2022/06/18 02:53:17;;;;;;;;;;;;;;;23.09;93.63;98477.34;5030009;28;19990;-81
2022/06/18 02:55:45;;;;;;;;;;;;;;;23.32;92.37;98480.56;5028231;28;20389;-81
2022/06/18 02:58:13;;;;;;;;;;;;;;;22.97;95.40;98481.91;5015725;28;20696;-80
2022/06/18 03:00:40;;;;;;;;;;;;;;;23.06;94.80;98488.13;5032067;28;20192;-81
2022/06/18 03:03:07;;;;;;;;;;;;;;;23.02;95.54;98479.84;5033832;28;19935;-80
2022/06/18 03:05:35;;;;;;;;;;;;;;;23.13;94.53;98477.50;5026783;28;20084;-81
2022/06/18 03:08:02;;;;;;;;;;;;;;;23.20;94.24;98477.78;5035531;28;20431;-81
2022/06/18 03:13:12;;;;;;;;;;;;;;;22.91;97.00;98483.25;5029132;28;19933;-81
2022/06/18 03:15:38;;;;;;;;;;;;;;;22.96;97.00;98477.63;5034144;28;19935;-80
2022/06/18 03:18:06;;;;;;;;;;;;;;;22.87;98.25;98474.16;5029585;28;19936;-80
2022/06/18 03:20:45;;;;;;;;;;;;;;;22.39;100.00;98472.59;5025690;28;19925;-80
2022/06/18 03:23:14;;;;;;;;;;;;;;;22.84;99.28;98474.81;5031225;28;20000;-81
2022/06/18 03:25:41;;;;;;;;;;;;;;;21.91;100.00;98483.75;5037111;28;20012;-81
2022/06/18 03:28:07;;;;;;;;;;;;;;;21.40;100.00;98481.84;5034531;28;20248;-81
2022/06/18 03:30:33;;;;;;;;;;;;;;;22.51;100.00;98472.69;5028453;28;20018;-81
2022/06/18 03:33:00;;;;;;;;;;;;;;;21.96;100.00;98472.72;5033540;28;19975;-82
2022/06/18 03:35:26;;;;;;;;;;;;;;;21.97;100.00;98473.53;5028187;28;20028;-79
2022/06/18 03:37:54;;;;;;;;;;;;;;;22.63;100.00;98468.47;5029461;28;19928;-82
2022/06/18 03:40:21;;;;;;;;;;;;;;;22.55;100.00;98465.47;5036381;28;19928;-83
2022/06/18 03:42:47;;;;;;;;;;;;;;;22.83;100.00;98471.28;5016776;28;20557;-80
2022/06/18 03:45:13;;;;;;;;;;;;;;;22.64;100.00;98470.88;5031902;28;19964;-81
2022/06/18 03:47:40;;;;;;;;;;;;;;;22.36;100.00;98467.78;5008759;28;19929;-80
2022/06/18 03:50:07;;;;;;;;;;;;;;;22.14;100.00;98483.53;5030729;28;20288;-81
2022/06/18 03:52:33;;;;;;;;;;;;;;;22.66;100.00;98474.09;5019484;28;20512;-82
2022/06/18 03:55:01;;;;;;;;;;;;;;;22.88;99.69;98481.19;5035729;28;19964;-80
2022/06/18 03:57:27;;;;;;;;;;;;;;;22.50;100.00;98479.25;5041537;28;19932;-81
2022/06/18 03:59:54;;;;;;;;;;;;;;;22.36;100.00;98481.41;5027764;28;19932;-81
2022/06/18 04:02:20;;;;;;;;;;;;;;;22.72;100.00;98477.41;5027161;28;19956;-80
2022/06/18 04:04:46;;;;;;;;;;;;;;;22.44;100.00;98466.16;5030971;28;20312;-81
2022/06/18 04:07:15;;;;;;;;;;;;;;;21.67;100.00;98479.91;5031614;28;19925;-80
2022/06/18 04:09:43;;;;;;;;;;;;;;;21.66;100.00;98473.69;5015718;28;19931;-80
2022/06/18 04:12:11;;;;;;;;;;;;;;;22.00;100.00;98470.94;5018017;28;20555;-80
2022/06/18 04:14:37;;;;;;;;;;;;;;;22.15;100.00;98475.06;5034608;28;20161;-80
2022/06/18 04:17:04;;;;;;;;;;;;;;;22.31;100.00;98464.47;5027502;28;20010;-81
2022/06/18 04:19:31;;;;;;;;;;;;;;;22.35;100.00;98466.19;5016131;28;19928;-82
2022/06/18 04:21:57;;;;;;;;;;;;;;;21.59;100.00;98458.97;5035704;28;19968;-79
2022/06/18 04:24:23;;;;;;;;;;;;;;;21.56;100.00;98465.06;5010578;28;19925;-81
2022/06/18 04:26:50;;;;;;;;;;;;;;;21.99;100.00;98469.34;5020971;28;19939;-80
2022/06/18 04:29:18;;;;;;;;;;;;;;;22.42;100.00;98465.69;5015009;28;20076;-80
2022/06/18 04:31:44;;;;;;;;;;;;;;;22.50;100.00;98465.63;5020332;28;19960;-80
2022/06/18 04:34:11;;;;;;;;;;;;;;;22.15;100.00;98463.38;5027659;28;19925;-80
2022/06/18 04:36:38;;;;;;;;;;;;;;;21.64;100.00;98467.75;5029732;28;19932;-80
2022/06/18 04:39:05;;;;;;;;;;;;;;;21.31;100.00;98467.47;5008673;28;20619;-81
2022/06/18 04:41:31;;;;;;;;;;;;;;;21.09;100.00;98470.31;5024297;28;20416;-81
2022/06/18 04:43:58;;;;;;;;;;;;;;;20.60;100.00;98459.78;5031011;28;20048;-80
2022/06/18 04:46:25;;;;;;;;;;;;;;;20.25;100.00;98466.97;5032179;28;19956;-79
2022/06/18 04:48:52;;;;;;;;;;;;;;;20.09;100.00;98463.84;5028915;28;20424;-80
2022/06/18 04:51:19;;;;;;;;;;;;;;;19.57;100.00;98476.28;5033671;28;20157;-80
2022/06/18 04:53:45;;;;;;;;;;;;;;;19.34;100.00;98480.84;5023703;28;20004;-79
2022/06/18 04:56:12;;;;;;;;;;;;;;;19.43;100.00;98477.44;5035860;28;19935;-80
2022/06/18 04:58:38;;;;;;;;;;;;;;;19.87;100.00;98472.00;5034479;28;20456;-80
2022/06/18 05:01:05;;;;;;;;;;;;;;;19.52;100.00;98470.19;5014038;28;20740;-80
2022/06/18 05:03:33;;;;;;;;;;;;;;;19.40;100.00;98474.22;5024443;28;19925;-82
2022/06/18 05:05:59;;;;;;;;;;;;;;;19.33;100.00;98473.84;5029959;28;19925;-80
2022/06/18 05:08:26;;;;;;;;;;;;;;;19.19;100.00;98477.66;5014253;28;20614;-81
2022/06/18 05:10:52;;;;;;;;;;;;;;;18.97;100.00;98481.13;5033573;28;19967;-81
2022/06/18 05:13:19;;;;;;;;;;;;;;;18.96;100.00;98479.53;5031893;28;20408;-81
2022/06/18 05:15:46;;;;;;;;;;;;;;;18.92;100.00;98470.41;5008273;28;19931;-80
2022/06/18 05:18:13;;;;;;;;;;;;;;;18.98;100.00;98477.31;5034080;28;19947;-79
2022/06/18 05:20:41;;;;;;;;;;;;;;;19.10;100.00;98485.72;5017931;28;19925;-81
2022/06/18 05:23:10;;;;;;;;;;;;;;;19.07;100.00;98480.91;5036491;28;20031;-81
2022/06/18 05:25:36;;;;;;;;;;;;;;;19.17;100.00;98479.88;5034415;28;20018;-81
2022/06/18 05:28:02;;;;;;;;;;;;;;;19.39;100.00;98477.22;5033287;28;20015;-80
2022/06/18 05:30:29;;;;;;;;;;;;;;;19.69;100.00;98481.13;5028701;28;20204;-80
2022/06/18 05:32:55;;;;;;;;;;;;;;;20.19;100.00;98474.44;5029402;28;20146;-82
2022/06/18 05:35:22;;;;;;;;;;;;;;;20.65;100.00;98475.91;5030681;28;20433;-80
2022/06/18 05:37:50;;;;;;;;;;;;;;;20.53;100.00;98473.81;5029284;28;19928;-81
2022/06/18 05:40:17;;;;;;;;;;;;;;;20.58;100.00;98481.03;5030435;28;19932;-80
2022/06/18 05:42:43;;;;;;;;;;;;;;;20.87;100.00;98473.13;5033149;28;19965;-80
2022/06/18 05:45:10;;;;;;;;;;;;;;;20.84;100.00;98474.56;5021802;28;20315;-79
2022/06/18 05:47:36;;;;;;;;;;;;;;;20.98;100.00;98488.78;5027301;28;20020;-81
2022/06/18 05:50:06;;;;;;;;;;;;;;;21.09;100.00;98478.47;5031758;28;20107;-79
2022/06/18 05:52:32;;;;;;;;;;;;;;;21.02;100.00;98475.38;5027376;28;19929;-80
2022/06/18 05:55:01;;;;;;;;;;;;;;;21.27;100.00;98471.94;5018897;28;19925;-81
2022/06/18 05:57:28;;;;;;;;;;;;;;;21.53;100.00;98478.19;5042347;28;20268;-80
2022/06/18 05:59:54;;;;;;;;;;;;;;;21.61;100.00;98462.97;5013569;28;19933;-81
2022/06/18 06:02:21;;;;;;;;;;;;;;;21.84;100.00;98469.84;5028098;28;20475;-80
2022/06/18 06:04:47;;;;;;;;;;;;;;;21.92;100.00;98465.50;5027090;28;19928;-80
2022/06/18 06:07:14;;;;;;;;;;;;;;;21.89;100.00;98466.16;5030453;28;20008;-82
2022/06/18 06:12:26;;;;;;;;;;;;;;;21.83;100.00;98459.25;5031133;28;20462;-80
2022/06/18 06:14:52;;;;;;;;;;;;;;;21.93;100.00;98458.97;5032276;28;20081;-79
2022/06/18 06:17:21;;;;;;;;;;;;;;;22.04;100.00;98462.91;5032526;28;19929;-81
2022/06/18 06:19:47;;;;;;;;;;;;;;;22.49;100.00;98452.38;5015928;28;19931;-80
2022/06/18 06:22:14;;;;;;;;;;;;;;;22.73;100.00;98462.69;5036425;28;19971;-80
2022/06/18 06:24:40;;;;;;;;;;;;;;;22.89;100.00;98455.56;5035062;28;20019;-80
2022/06/18 06:27:06;;;;;;;;;;;;;;;22.77;100.00;98453.53;5036994;28;20271;-80
2022/06/18 06:29:34;;;;;;;;;;;;;;;22.82;100.00;98460.72;5036698;28;19928;-80
2022/06/18 06:32:00;;;;;;;;;;;;;;;22.83;100.00;98462.31;5014001;28;20019;-82
2022/06/18 06:34:27;;;;;;;;;;;;;;;23.07;100.00;98462.47;5037225;28;19967;-79
2022/06/18 06:36:53;;;;;;;;;;;;;;;22.86;100.00;98454.28;5010940;28;20057;-81
2022/06/18 06:39:19;;;;;;;;;;;;;;;22.74;100.00;98454.19;5036103;28;20012;-79
2022/06/18 06:41:46;;;;;;;;;;;;;;;22.79;100.00;98456.72;5036253;28;20086;-80
2022/06/18 06:44:12;;;;;;;;;;;;;;;22.91;100.00;98447.84;5032421;28;20028;-80
2022/06/18 06:46:40;;;;;;;;;;;;;;;23.04;100.00;98452.25;5018120;28;19932;-80
2022/06/18 06:49:06;;;;;;;;;;;;;;;23.11;100.00;98447.88;5032493;28;19924;-80
2022/06/18 06:51:35;;;;;;;;;;;;;;;23.37;100.00;98441.41;5018201;28;20413;-80
2022/06/18 06:54:01;;;;;;;;;;;;;;;23.67;100.00;98449.19;5031014;28;19928;-81
2022/06/18 06:59:12;;;;;;;;;;;;;;;23.07;100.00;98446.94;5027639;28;20397;-80
2022/06/18 07:01:40;;;;;;;;;;;;;;;22.84;100.00;98450.31;5027399;28;20012;-81
2022/06/18 07:04:07;;;;;;;;;;;;;;;22.78;100.00;98437.97;5031372;28;20031;-80
2022/06/18 07:06:35;;;;;;;;;;;;;;;22.75;100.00;98439.44;5012836;28;19938;-79
2022/06/18 07:09:01;;;;;;;;;;;;;;;22.63;100.00;98435.78;5036971;28;19979;-80
2022/06/18 07:11:27;;;;;;;;;;;;;;;22.73;100.00;98435.44;5036021;28;19924;-80
2022/06/18 07:13:54;;;;;;;;;;;;;;;22.95;100.00;98433.25;5035314;28;20015;-81
2022/06/18 07:16:20;;;;;;;;;;;;;;;23.01;100.00;98433.84;5025437;28;19929;-81
2022/06/18 07:18:49;;;;;;;;;;;;;;;23.32;100.00;98447.06;5033597;28;20007;-81
2022/06/18 07:21:16;;;;;;;;;;;;;;;23.61;100.00;98434.16;5013326;28;19929;-80
2022/06/18 07:23:43;;;;;;;;;;;;;;;23.45;100.00;98435.94;5029494;28;19925;-80
2022/06/18 07:26:11;;;;;;;;;;;;;;;23.09;100.00;98439.22;5037319;28;19925;-80
2022/06/18 07:28:37;;;;;;;;;;;;;;;23.22;100.00;98426.47;5034648;28;19975;-80
2022/06/18 07:31:05;;;;;;;;;;;;;;;23.42;100.00;98435.78;5025037;28;19987;-81
2022/06/18 07:33:35;;;;;;;;;;;;;;;23.21;100.00;98419.41;5028659;28;20015;-79
2022/06/18 07:36:03;;;;;;;;;;;;;;;23.24;100.00;98429.63;5037250;28;20051;-81
2022/06/18 07:38:29;;;;;;;;;;;;;;;23.32;98.89;98425.25;5024626;28;20028;-80
2022/06/18 07:40:56;;;;;;;;;;;;;;;23.25;98.43;98431.25;5027609;28;20019;-79
2022/06/18 07:43:28;;;;;;;;;;;;;;;23.17;100.00;98425.88;5021777;28;19925;-78
2022/06/18 07:45:55;;;;;;;;;;;;;;;23.15;100.00;98428.91;5028694;28;19932;-81
2022/06/18 07:48:21;;;;;;;;;;;;;;;23.38;100.00;98424.72;5031605;28;19931;-80
2022/06/18 07:50:48;;;;;;;;;;;;;;;23.57;99.64;98427.81;5012240;28;19984;-81
2022/06/18 07:53:17;;;;;;;;;;;;;;;23.92;97.30;98428.22;5013833;28;20479;-81
2022/06/18 07:55:44;;;;;;;;;;;;;;;23.98;93.97;98421.44;5008956;28;20027;-80
2022/06/18 07:58:10;;;;;;;;;;;;;;;23.99;93.93;98417.56;5041079;28;19956;-81
2022/06/18 08:00:39;;;;;;;;;;;;;;;24.04;96.21;98411.09;5030944;28;20407;-82
2022/06/18 08:03:05;;;;;;;;;;;;;;;24.25;94.02;98402.84;5033999;28;20527;-80
2022/06/18 08:05:32;;;;;;;;;;;;;;;24.40;93.96;98408.44;5034723;28;20027;-82
2022/06/18 08:07:58;;;;;;;;;;;;;;;24.40;92.73;98408.44;5028832;28;19975;-82
2022/06/18 08:10:26;;;;;;;;;;;;;;;24.51;92.26;98406.81;5033597;28;20236;-81
2022/06/18 08:12:52;;;;;;;;;;;;;;;24.50;93.37;98399.78;5032591;28;19975;-80
2022/06/18 08:15:19;;;;;;;;;;;;;;;24.57;93.78;98399.22;5036324;28;19928;-82
2022/06/18 08:17:45;;;;;;;;;;;;;;;24.48;94.56;98404.00;5022223;28;19929;-81
2022/06/18 08:20:12;;;;;;;;;;;;;;;24.54;95.06;98400.69;5033643;28;19987;-81
2022/06/18 08:22:40;;;;;;;;;;;;;;;24.58;95.83;98407.06;5019969;28;19932;-81
2022/06/18 08:25:08;;;;;;;;;;;;;;;24.70;96.93;98401.59;5027573;28;20016;-80
2022/06/18 08:27:36;;;;;;;;;;;;;;;24.69;97.49;98402.75;5030008;28;19925;-79
2022/06/18 08:30:03;;;;;;;;;;;;;;;24.69;95.53;98400.00;5032256;28;20039;-80
2022/06/18 08:32:30;;;;;;;;;;;;;;;24.80;97.42;98396.78;5030262;28;20136;-80
2022/06/18 08:34:56;;;;;;;;;;;;;;;24.84;99.13;98395.81;5008731;28;20051;-80
2022/06/18 08:37:22;;;;;;;;;;;;;;;25.00;97.38;98396.69;5031295;28;20036;-80
2022/06/18 08:39:49;;;;;;;;;;;;;;;25.08;96.84;98394.94;5026118;28;19939;-79
2022/06/18 08:42:23;;;;;;;;;;;;;;;25.30;94.73;98394.41;5026221;28;19928;-80
2022/06/18 08:45:00;;;;;;;;;;;;;;;25.37;91.71;98394.63;5021702;28;20012;-81
2022/06/18 08:47:34;;;;;;;;;;;;;;;25.15;92.58;98387.75;5030729;28;20021;-80
2022/06/18 08:50:14;;;;;;;;;;;;;;;25.21;96.34;98386.38;5022513;28;20208;-81
2022/06/18 08:52:49;;;;;;;;;;;;;;;25.34;94.29;98384.38;5023937;28;20019;-82
2022/06/18 08:55:19;;;;;;;;;;;;;;;25.50;93.14;98376.25;5027424;28;20308;-80
2022/06/18 08:57:49;;;;;;;;;;;;;;;25.55;89.45;98376.00;5023046;28;19951;-80
2022/06/18 09:00:18;;;;;;;;;;;;;;;25.54;90.82;98361.53;5031274;28;20025;-80
2022/06/18 09:02:49;;;;;;;;;;;;;;;25.52;86.92;98369.28;5033632;28;19964;-81
2022/06/18 09:05:20;;;;;;;;;;;;;;;25.52;85.18;98363.81;5037300;28;20153;-80
2022/06/18 09:08:03;;;;;;;;;;;;;;;25.70;85.30;98359.63;5040094;28;19960;-81
2022/06/18 09:10:35;;;;;;;;;;;;;;;25.86;84.96;98356.91;5029860;28;20012;-80
2022/06/18 09:13:02;;;;;;;;;;;;;;;25.91;85.23;98333.94;5037362;28;19924;-83
2022/06/18 09:15:32;;;;;;;;;;;;;;;25.90;86.02;98338.63;5038478;28;19987;-84
2022/06/18 09:18:02;;;;;;;;;;;;;;;26.02;86.17;98338.53;5029649;28;20468;-80
2022/06/18 09:20:33;;;;;;;;;;;;;;;26.28;83.35;98332.53;5038861;28;20071;-80
2022/06/18 09:23:03;;;;;;;;;;;;;;;26.33;81.57;98335.03;5028632;28;20044;-82
2022/06/18 09:25:34;;;;;;;;;;;;;;;26.22;81.57;98334.75;5035700;28;20385;-82
2022/06/18 09:28:03;;;;;;;;;;;;;;;26.15;81.97;98325.56;5025093;28;19965;-80
2022/06/18 09:30:35;;;;;;;;;;;;;;;26.27;81.58;98323.50;5034315;28;19931;-81
2022/06/18 09:33:03;;;;;;;;;;;;;;;26.29;79.83;98321.25;5032059;28;20142;-79
2022/06/18 09:35:32;;;;;;;;;;;;;;;26.42;81.80;98321.94;5030022;28;19970;-81
2022/06/18 09:38:01;;;;;;;;;;;;;;;26.50;80.87;98320.13;5026198;28;20202;-79
2022/06/18 09:40:30;;;;;;;;;;;;;;;26.67;80.59;98320.53;5036826;28;19928;-83
2022/06/18 09:43:02;;;;;;;;;;;;;;;26.71;79.80;98323.31;5026924;28;20171;-82
2022/06/18 09:45:31;;;;;;;;;;;;;;;26.58;81.42;98319.94;5026434;28;19928;-82
2022/06/18 09:48:01;;;;;;;;;;;;;;;26.74;81.60;98317.94;5021937;28;19968;-79
2022/06/18 09:50:31;;;;;;;;;;;;;;;26.94;80.49;98313.28;5018667;28;20444;-81
2022/06/18 09:53:01;;;;;;;;;;;;;;;27.00;79.68;98314.59;5015863;28;19925;-81
2022/06/18 09:55:33;;;;;;;;;;;;;;;27.11;79.29;98315.59;5033057;28;20340;-82
2022/06/18 09:58:00;;;;;;;;;;;;;;;27.22;80.00;98304.84;5039406;28;20099;-80
2022/06/18 10:00:29;;;;;;;;;;;;;;;27.13;78.46;98299.59;5035289;28;19929;-83
2022/06/18 10:02:57;;;;;;;;;;;;;;;27.18;78.39;98301.22;5029515;28;19924;-81
2022/06/18 10:08:11;;;;;;;;;;;;;;;27.28;79.98;98306.13;5035128;28;19932;-80
2022/06/18 10:10:41;;;;;;;;;;;;;;;27.35;78.80;98298.03;5036662;28;19933;-82
2022/06/18 10:13:13;;;;;;;;;;;;;;;27.41;78.59;98296.59;5037746;28;19968;-81
2022/06/18 10:15:39;;;;;;;;;;;;;;;27.46;77.61;98303.75;5032417;28;19935;-84
2022/06/18 10:18:16;;;;;;;;;;;;;;;27.65;75.11;98296.28;5031859;28;20377;-80
2022/06/18 10:20:47;;;;;;;;;;;;;;;27.67;77.45;98291.19;5029738;28;20014;-81
2022/06/18 10:23:24;;;;;;;;;;;;;;;27.64;76.40;98291.13;5036895;28;19925;-80
2022/06/18 10:25:57;;;;;;;;;;;;;;;27.74;76.18;98293.28;5018887;28;19983;-80
2022/06/18 10:28:39;;;;;;;;;;;;;;;27.76;74.94;98297.22;5024895;28;19929;-80
2022/06/18 10:31:09;;;;;;;;;;;;;;;27.70;74.54;98289.66;5019189;28;19983;-81
2022/06/18 10:33:41;;;;;;;;;;;;;;;27.72;74.12;98284.63;5012615;28;19968;-80
2022/06/18 10:36:16;;;;;;;;;;;;;;;27.81;74.13;98280.47;5035773;28;19925;-84
2022/06/18 10:38:49;;;;;;;;;;;;;;;27.89;75.04;98271.19;5037182;28;19932;-81
2022/06/18 10:41:18;;;;;;;;;;;;;;;28.03;75.68;98269.84;5021693;28;20420;-79
2022/06/18 10:43:52;;;;;;;;;;;;;;;28.14;74.30;98273.56;5040346;28;19931;-81
2022/06/18 10:46:20;;;;;;;;;;;;;;;28.27;74.61;98264.75;5037555;28;20015;-81
2022/06/18 10:48:49;;;;;;;;;;;;;;;28.26;74.07;98256.84;5024678;28;20502;-81
2022/06/18 10:51:17;;;;;;;;;;;;;;;28.29;71.47;98256.13;5017168;28;19928;-80
2022/06/18 10:53:48;;;;;;;;;;;;;;;28.53;70.29;98263.94;5033255;28;19928;-79
2022/06/18 10:56:15;;;;;;;;;;;;;;;28.45;70.62;98254.00;5042437;28;19951;-81
2022/06/18 10:58:46;;;;;;;;;;;;;;;28.48;71.16;98253.25;5036115;28;20022;-81
2022/06/18 11:01:15;;;;;;;;;;;;;;;28.64;70.13;98248.38;5034228;28;19972;-80
2022/06/18 11:03:41;;;;;;;;;;;;;;;28.76;69.29;98255.59;5012787;28;20446;-80
2022/06/18 11:06:10;;;;;;;;;;;;;;;28.84;67.65;98252.56;5018188;28;20061;-80
2022/06/18 11:08:39;;;;;;;;;;;;;;;28.89;66.61;98246.75;5030367;28;19929;-79
2022/06/18 11:11:07;;;;;;;;;;;;;;;28.79;67.55;98241.91;5038870;28;19931;-81
2022/06/18 11:13:35;;;;;;;;;;;;;;;29.07;65.43;98241.44;5037865;28;19935;-79
2022/06/18 11:16:06;;;;;;;;;;;;;;;29.06;67.33;98248.09;5027627;28;20102;-81
2022/06/18 11:18:33;;;;;;;;;;;;;;;29.00;67.42;98246.09;5030649;28;20040;-80
2022/06/18 11:21:00;;;;;;;;;;;;;;;28.96;66.83;98251.53;5032039;28;19991;-80
2022/06/18 11:23:28;;;;;;;;;;;;;;;29.07;65.91;98251.63;5029803;28;19975;-78
2022/06/18 11:25:57;;;;;;;;;;;;;;;29.05;68.46;98243.78;5017071;28;20008;-80
2022/06/18 11:28:28;;;;;;;;;;;;;;;29.18;68.31;98234.09;5032293;28;20002;-79
2022/06/18 11:30:55;;;;;;;;;;;;;;;29.19;68.55;98240.38;5032144;28;19929;-78
2022/06/18 11:33:26;;;;;;;;;;;;;;;29.49;58.01;98229.31;5023238;28;19929;-80
2022/06/18 11:35:52;;;;;;;;;;;;;;;29.44;58.82;98227.69;5034010;28;20027;-78
2022/06/18 11:38:23;;;;;;;;;;;;;;;29.52;56.91;98228.56;5034636;28;20012;-80
2022/06/18 11:40:52;;;;;;;;;;;;;;;29.50;57.69;98225.38;5037824;28;20355;-79
2022/06/18 11:43:24;;;;;;;;;;;;;;;29.50;54.33;98220.66;5023164;28;19951;-82
2022/06/18 11:45:52;;;;;;;;;;;;;;;29.52;53.74;98217.53;5037382;28;20693;-80
2022/06/18 11:48:23;;;;;;;;;;;;;;;29.44;56.12;98216.69;5037186;28;20020;-79
2022/06/18 11:50:53;;;;;;;;;;;;;;;29.51;55.33;98213.19;5042540;28;19928;-82
2022/06/18 11:53:24;;;;;;;;;;;;;;;29.78;52.57;98203.59;5016198;28;20519;-81
2022/06/18 11:55:53;;;;;;;;;;;;;;;29.82;54.66;98210.75;5015691;28;19928;-82
2022/06/18 11:58:24;;;;;;;;;;;;;;;29.68;55.71;98205.06;5033866;28;19925;-80
2022/06/18 12:00:53;;;;;;;;;;;;;;;29.51;56.19;98203.00;5014613;28;19956;-82
2022/06/18 12:03:27;;;;;;;;;;;;;;;29.56;55.71;98194.38;5006480;28;20016;-81
2022/06/18 12:05:56;;;;;;;;;;;;;;;29.80;49.90;98202.03;5031573;28;20359;-81
2022/06/18 12:08:23;;;;;;;;;;;;;;;29.94;48.17;98185.66;5030784;28;20012;-81
2022/06/18 12:10:55;;;;;;;;;;;;;;;29.79;51.74;98183.16;5034580;28;20497;-81
2022/06/18 12:13:27;;;;;;;;;;;;;;;29.95;49.95;98184.47;5033257;28;20450;-80
2022/06/18 12:15:58;;;;;;;;;;;;;;;30.20;47.81;98170.06;5013724;28;20054;-81
2022/06/18 12:18:27;;;;;;;;;;;;;;;30.36;46.88;98173.28;5029093;28;19936;-82
2022/06/18 12:20:59;;;;;;;;;;;;;;;30.01;49.27;98167.59;5031633;28;20387;-80
2022/06/18 12:23:31;;;;;;;;;;;;;;;29.83;50.56;98173.75;5027899;28;20173;-79
2022/06/18 12:26:03;;;;;;;;;;;;;;;30.13;50.01;98165.31;5022804;28;19932;-82
2022/06/18 12:28:36;;;;;;;;;;;;;;;30.04;50.83;98155.78;5023732;28;19991;-82
2022/06/18 12:31:06;;;;;;;;;;;;;;;30.19;48.74;98157.44;5007882;28;20324;-83
2022/06/18 12:33:38;;;;;;;;;;;;;;;30.31;46.35;98148.84;5034734;28;20006;-81
2022/06/18 12:36:08;;;;;;;;;;;;;;;30.24;48.33;98148.81;5039694;28;20033;-80
2022/06/18 12:38:36;;;;;;;;;;;;;;;30.19;49.58;98147.22;5028118;28;19931;-81
2022/06/18 12:41:07;;;;;;;;;;;;;;;30.13;48.30;98137.75;5013652;28;19925;-81
2022/06/18 12:43:39;;;;;;;;;;;;;;;30.35;49.34;98144.16;5023173;28;20392;-81
2022/06/18 12:46:09;;;;;;;;;;;;;;;30.26;49.35;98138.22;5031515;28;19929;-80
2022/06/18 12:48:43;;;;;;;;;;;;;;;30.15;50.41;98146.41;5033954;28;19964;-80
2022/06/18 12:51:13;;;;;;;;;;;;;;;30.14;50.42;98144.06;5018151;28;19929;-82
2022/06/18 12:53:52;;;;;;;;;;;;;;;30.45;45.49;98140.69;5016663;28;20015;-82
2022/06/18 12:56:25;;;;;;;;;;;;;;;30.59;46.87;98137.16;5041413;28;19956;-84
2022/06/18 12:58:57;;;;;;;;;;;;;;;30.64;46.36;98137.56;5036876;28;20562;-84
2022/06/18 13:01:28;;;;;;;;;;;;;;;30.28;49.22;98133.09;5027442;28;19931;-84
2022/06/18 13:04:05;;;;;;;;;;;;;;;30.56;46.91;98124.16;5022593;28;19987;-83
2022/06/18 13:06:37;;;;;;;;;;;;;;;30.48;48.73;98126.13;5041563;28;19985;-84